createdAt,value
2023-04-30T00:00:10.965Z,57.23
2023-04-30T00:02:41.259Z,57.21
2023-04-30T00:05:11.749Z,57.11
2023-04-30T00:07:42.694Z,57.01
2023-04-30T00:10:12.906Z,57.25
2023-04-30T00:12:43.061Z,56.88
2023-04-30T00:15:15.459Z,56.92
2023-04-30T00:17:45.924Z,57.06
2023-04-30T00:20:16.248Z,57.26
2023-04-30T00:22:46.598Z,57.21
2023-04-30T00:25:16.903Z,57.03
2023-04-30T00:27:47.422Z,57.22
2023-04-30T00:30:17.655Z,57.22
2023-04-30T00:32:47.781Z,56.92
2023-04-30T00:35:18.076Z,57.38
2023-04-30T00:37:48.187Z,57.13
2023-04-30T00:40:18.475Z,57.10
2023-04-30T00:42:48.904Z,56.89
2023-04-30T00:45:22.306Z,56.60
2023-04-30T00:47:52.708Z,56.93
2023-04-30T00:50:23.419Z,57.01
2023-04-30T00:52:53.597Z,56.92
2023-04-30T00:55:23.767Z,56.91
2023-04-30T00:57:55.282Z,56.62
2023-04-30T01:00:25.558Z,57.31
2023-04-30T01:02:56.866Z,57.22
2023-04-30T01:05:27.281Z,57.20
2023-04-30T01:07:57.675Z,57.14
2023-04-30T01:10:32.548Z,57.48
2023-04-30T01:13:09.598Z,58.11
2023-04-30T01:15:39.858Z,57.54
2023-04-30T01:18:17.873Z,57.67
2023-04-30T01:22:15.440Z,59.00
2023-04-30T01:25:31.352Z,58.76
2023-04-30T01:28:25.574Z,59.15
2023-04-30T01:30:56.254Z,57.89
2023-04-30T01:33:26.930Z,57.84
2023-04-30T01:45:07.568Z,58.31
2023-04-30T01:48:17.667Z,58.38
2023-04-30T01:51:02.197Z,57.11
2023-04-30T01:54:29.648Z,58.30
2023-04-30T02:01:34.874Z,58.70
2023-04-30T02:04:05.933Z,57.10
2023-04-30T02:06:48.271Z,57.89
2023-04-30T02:10:13.704Z,58.69
2023-04-30T02:13:16.137Z,57.80
2023-04-30T02:16:13.574Z,58.50
2023-04-30T02:18:44.932Z,57.21
2023-04-30T02:21:46.610Z,58.27
2023-04-30T02:24:16.760Z,57.14
2023-04-30T02:27:46.644Z,58.05
2023-04-30T02:30:51.412Z,58.04
2023-04-30T02:33:47.420Z,58.44
2023-04-30T02:36:55.933Z,58.31
2023-04-30T02:39:59.954Z,58.69
2023-04-30T02:42:30.522Z,56.91
2023-04-30T02:45:42.224Z,58.35
2023-04-30T02:48:21.244Z,57.97
2023-04-30T02:50:51.637Z,57.16
2023-04-30T02:53:21.827Z,57.43
2023-04-30T02:55:52.090Z,57.58
2023-04-30T02:58:22.238Z,57.63
2023-04-30T03:00:52.459Z,57.56
2023-04-30T03:03:22.718Z,57.69
2023-04-30T03:05:52.948Z,57.63
2023-04-30T03:08:23.021Z,57.95
2023-04-30T03:10:53.129Z,57.54
2023-04-30T03:13:26.043Z,57.53
2023-04-30T03:16:06.480Z,57.75
2023-04-30T03:18:36.933Z,57.50
2023-04-30T03:21:07.092Z,57.48
2023-04-30T03:23:37.232Z,57.33
2023-04-30T03:26:08.686Z,57.44
2023-04-30T03:28:38.919Z,57.21
2023-04-30T03:31:09.099Z,57.44
2023-04-30T03:33:39.246Z,57.37
2023-04-30T03:36:09.414Z,57.59
2023-04-30T03:38:39.602Z,57.70
2023-04-30T03:41:09.910Z,57.00
2023-04-30T03:43:40.183Z,57.36
2023-04-30T03:46:10.351Z,57.53
2023-04-30T03:48:41.072Z,57.71
2023-04-30T03:51:11.402Z,57.64
2023-04-30T03:53:41.582Z,57.61
2023-04-30T03:56:11.974Z,57.70
2023-04-30T03:58:42.030Z,57.93
2023-04-30T04:01:12.225Z,57.67
2023-04-30T04:03:42.386Z,57.47
2023-04-30T04:06:12.546Z,57.55
2023-04-30T04:08:45.459Z,57.70
2023-04-30T04:11:15.984Z,57.73
2023-04-30T04:13:46.158Z,57.57
2023-04-30T04:16:16.355Z,57.42
2023-04-30T04:18:46.774Z,57.46
2023-04-30T04:21:17.016Z,57.33
2023-04-30T04:23:47.137Z,57.39
2023-04-30T04:26:19.837Z,57.21
2023-04-30T04:28:50.324Z,57.57
2023-04-30T04:31:20.861Z,57.54
2023-04-30T04:33:58.283Z,57.58
2023-04-30T04:36:28.965Z,57.44
2023-04-30T04:39:02.356Z,57.34
2023-04-30T04:41:33.950Z,57.41
2023-04-30T04:44:04.778Z,57.21
2023-04-30T04:46:38.805Z,57.15
2023-04-30T04:49:12.782Z,57.04
2023-04-30T04:51:42.911Z,57.23
2023-04-30T04:54:13.201Z,57.58
2023-04-30T04:56:43.359Z,57.14
2023-04-30T04:59:13.760Z,57.47
2023-04-30T05:01:43.917Z,57.43
2023-04-30T05:04:14.360Z,57.50
2023-04-30T05:06:44.607Z,57.33
2023-04-30T05:09:14.780Z,57.42
2023-04-30T05:11:46.409Z,57.24
2023-04-30T05:14:16.651Z,57.86
2023-04-30T05:16:47.074Z,57.93
2023-04-30T05:19:17.415Z,57.95
2023-04-30T05:21:47.510Z,57.83
2023-04-30T05:24:18.002Z,57.78
2023-04-30T05:26:48.088Z,58.05
2023-04-30T05:29:18.127Z,58.26
2023-04-30T05:31:48.381Z,58.17
2023-04-30T05:34:18.518Z,58.27
2023-04-30T05:36:48.689Z,58.56
2023-04-30T05:39:18.793Z,58.58
2023-04-30T05:41:49.116Z,58.51
2023-04-30T05:44:19.338Z,58.92
2023-04-30T05:46:49.541Z,59.00
2023-04-30T05:49:19.659Z,59.03
2023-04-30T05:51:49.782Z,58.95
2023-04-30T05:54:19.813Z,58.86
2023-04-30T05:56:49.966Z,59.14
2023-04-30T05:59:20.156Z,58.90
2023-04-30T06:01:50.302Z,58.81
2023-04-30T06:04:20.456Z,59.02
2023-04-30T06:06:50.706Z,59.11
2023-04-30T06:09:20.888Z,59.14
2023-04-30T06:11:52.267Z,58.77
2023-04-30T06:14:25.750Z,58.48
2023-04-30T06:16:55.985Z,58.82
2023-04-30T06:19:26.107Z,58.84
2023-04-30T06:21:56.202Z,58.83
2023-04-30T06:24:27.735Z,58.48
2023-04-30T06:26:57.926Z,58.85
2023-04-30T06:29:27.964Z,58.66
2023-04-30T06:31:58.131Z,58.57
2023-04-30T06:34:28.270Z,58.33
2023-04-30T06:36:58.471Z,58.35
2023-04-30T06:39:28.576Z,58.18
2023-04-30T06:41:58.688Z,58.75
2023-04-30T06:44:28.933Z,58.85
2023-04-30T06:46:59.054Z,58.73
2023-04-30T06:49:29.230Z,58.65
2023-04-30T06:51:59.356Z,58.31
2023-04-30T06:54:29.664Z,58.08
2023-04-30T06:56:59.875Z,58.27
2023-04-30T06:59:30.366Z,57.67
2023-04-30T07:02:00.754Z,57.63
2023-04-30T07:04:31.245Z,57.47
2023-04-30T07:07:02.417Z,57.71
2023-04-30T07:09:33.176Z,58.12
2023-04-30T07:12:03.773Z,58.31
2023-04-30T07:14:33.959Z,58.04
2023-04-30T07:17:04.132Z,57.05
2023-04-30T07:19:34.323Z,57.24
2023-04-30T07:22:04.479Z,57.25
2023-04-30T07:24:35.033Z,56.25
2023-04-30T07:27:05.649Z,56.26
2023-04-30T07:29:35.899Z,56.12
2023-04-30T07:32:06.159Z,56.78
2023-04-30T07:34:36.536Z,56.38
2023-04-30T07:37:06.618Z,55.63
2023-04-30T07:39:38.774Z,54.72
2023-04-30T07:42:08.973Z,54.56
2023-04-30T07:44:39.387Z,54.70
2023-04-30T07:47:10.109Z,55.34
2023-04-30T07:49:40.241Z,55.04
2023-04-30T07:52:12.618Z,54.98
2023-04-30T07:54:42.756Z,53.93
2023-04-30T07:57:13.164Z,54.27
2023-04-30T07:59:43.964Z,54.45
2023-04-30T08:02:14.115Z,53.81
2023-04-30T08:04:44.522Z,53.62
2023-04-30T08:07:16.159Z,53.19
2023-04-30T08:09:46.309Z,53.21
2023-04-30T08:12:17.302Z,53.08
2023-04-30T08:14:47.873Z,53.71
2023-04-30T08:17:18.075Z,53.05
2023-04-30T08:19:48.770Z,52.73
2023-04-30T08:22:18.935Z,52.25
2023-04-30T08:24:49.303Z,51.88
2023-04-30T08:27:19.333Z,51.93
2023-04-30T08:29:49.553Z,51.98
2023-04-30T08:32:20.066Z,51.18
2023-04-30T08:34:50.274Z,51.41
2023-04-30T08:37:20.382Z,50.55
2023-04-30T08:39:50.493Z,49.75
2023-04-30T08:42:25.175Z,50.28
2023-04-30T08:44:55.211Z,50.24
2023-04-30T08:47:26.032Z,50.23
2023-04-30T08:49:56.552Z,49.97
2023-04-30T08:52:27.908Z,49.92
2023-04-30T08:55:01.564Z,49.03
2023-04-30T08:57:31.644Z,49.29
2023-04-30T09:00:01.778Z,49.42
2023-04-30T09:02:33.384Z,50.23
2023-04-30T09:05:07.758Z,49.05
2023-04-30T09:07:48.979Z,49.33
2023-04-30T09:10:21.674Z,49.50
2023-04-30T09:13:10.383Z,44.93
2023-04-30T09:15:46.077Z,47.77
2023-04-30T09:18:18.527Z,47.59
2023-04-30T09:21:02.013Z,45.79
2023-04-30T09:23:32.266Z,47.46
2023-04-30T09:26:02.461Z,46.97
2023-04-30T09:28:32.565Z,46.58
2023-04-30T09:31:03.468Z,46.31
2023-04-30T09:33:47.503Z,44.71
2023-04-30T09:36:17.695Z,46.75
2023-04-30T09:38:48.158Z,45.88
2023-04-30T09:41:27.520Z,43.95
2023-04-30T09:43:58.041Z,45.88
2023-04-30T09:46:33.305Z,44.19
2023-04-30T09:49:06.170Z,44.88
2023-04-30T09:51:53.407Z,44.10
2023-04-30T09:54:27.831Z,44.69
2023-04-30T09:57:01.923Z,43.87
2023-04-30T09:59:35.601Z,44.67
2023-04-30T10:02:08.356Z,45.23
2023-04-30T10:04:41.714Z,45.88
2023-04-30T10:07:22.502Z,44.50
2023-04-30T10:10:03.482Z,44.13
2023-04-30T10:12:43.329Z,45.07
2023-04-30T10:15:17.842Z,45.51
2023-04-30T10:17:55.356Z,46.05
2023-04-30T10:20:27.001Z,46.27
2023-04-30T10:22:57.414Z,46.52
2023-04-30T10:25:28.991Z,45.83
2023-04-30T10:27:59.526Z,45.63
2023-04-30T10:30:33.983Z,45.94
2023-04-30T10:33:16.975Z,45.29
2023-04-30T10:35:53.140Z,46.91
2023-04-30T10:38:27.132Z,46.44
2023-04-30T10:40:59.475Z,45.82
2023-04-30T10:43:33.367Z,45.78
2023-04-30T10:46:04.911Z,45.68
2023-04-30T10:48:36.147Z,46.57
2023-04-30T10:51:08.920Z,45.85
2023-04-30T10:53:42.270Z,45.37
2023-04-30T10:56:13.395Z,45.73
2023-04-30T10:58:44.302Z,45.55
2023-04-30T11:01:16.222Z,46.44
2023-04-30T11:04:06.957Z,43.50
2023-04-30T11:07:09.964Z,44.62
2023-04-30T11:09:44.598Z,44.31
2023-04-30T11:12:19.744Z,45.13
2023-04-30T11:14:50.609Z,44.58
2023-04-30T11:17:24.965Z,44.13
2023-04-30T11:20:01.045Z,44.12
2023-04-30T11:22:36.228Z,44.81
2023-04-30T11:25:15.734Z,44.73
2023-04-30T11:27:46.505Z,44.52
2023-04-30T11:30:18.543Z,43.84
2023-04-30T11:32:50.659Z,43.29
2023-04-30T11:35:20.830Z,44.10
2023-04-30T11:37:55.779Z,43.30
2023-04-30T11:40:28.089Z,43.76
2023-04-30T11:42:58.137Z,43.94
2023-04-30T11:45:28.229Z,43.26
2023-04-30T11:47:58.575Z,43.41
2023-04-30T11:50:33.986Z,42.72
2023-04-30T11:53:05.776Z,43.57
2023-04-30T11:55:36.099Z,42.28
2023-04-30T11:58:09.717Z,42.46
2023-04-30T12:00:39.852Z,42.82
2023-04-30T12:03:10.152Z,42.44
2023-04-30T12:05:40.981Z,42.06
2023-04-30T12:08:12.165Z,42.49
2023-04-30T12:10:42.385Z,42.39
2023-04-30T12:13:18.894Z,42.35
2023-04-30T12:15:59.808Z,38.72
2023-04-30T12:18:29.928Z,40.39
2023-04-30T12:21:00.111Z,38.54
2023-04-30T12:23:30.390Z,37.08
2023-04-30T12:26:01.750Z,37.39
2023-04-30T12:28:37.607Z,35.95
2023-04-30T12:31:08.923Z,38.64
2023-04-30T12:33:40.091Z,38.96
2023-04-30T12:36:11.221Z,37.97
2023-04-30T12:38:44.327Z,34.00
2023-04-30T12:41:15.619Z,35.93
2023-04-30T12:43:45.779Z,35.76
2023-04-30T12:46:27.530Z,26.12
2023-04-30T12:49:00.149Z,33.08
2023-04-30T12:51:30.344Z,31.76
2023-04-30T12:54:00.948Z,31.09
2023-04-30T12:56:31.357Z,30.38
2023-04-30T12:59:01.579Z,29.33
2023-04-30T13:01:33.778Z,28.18
2023-04-30T13:04:04.729Z,26.90
2023-04-30T13:06:35.476Z,26.84
2023-04-30T13:09:05.683Z,26.57
2023-04-30T13:11:35.773Z,25.38
2023-04-30T13:14:05.895Z,24.42
2023-04-30T13:16:38.058Z,24.49
2023-04-30T13:19:09.740Z,24.35
2023-04-30T13:21:39.854Z,24.02
2023-04-30T13:24:10.025Z,23.59
2023-04-30T13:26:40.876Z,23.06
2023-04-30T13:29:11.865Z,22.25
2023-04-30T13:31:42.780Z,20.96
2023-04-30T13:34:13.050Z,21.92
2023-04-30T13:36:43.454Z,21.85
2023-04-30T13:39:13.690Z,21.33
2023-04-30T13:41:43.787Z,20.83
2023-04-30T13:44:13.925Z,21.29
2023-04-30T13:46:44.120Z,21.15
2023-04-30T13:49:14.312Z,20.37
2023-04-30T13:51:44.689Z,20.03
2023-04-30T13:54:14.772Z,20.15
2023-04-30T13:56:44.964Z,19.55
2023-04-30T13:59:19.131Z,19.72
2023-04-30T14:01:49.446Z,19.21
2023-04-30T14:04:19.777Z,19.23
2023-04-30T14:06:50.502Z,18.88
2023-04-30T14:09:20.692Z,18.74
2023-04-30T14:11:51.413Z,18.84
2023-04-30T14:14:21.708Z,18.93
2023-04-30T14:16:52.685Z,18.30
2023-04-30T14:19:23.382Z,18.43
2023-04-30T14:21:53.535Z,19.01
2023-04-30T14:24:23.964Z,18.38
2023-04-30T14:26:54.210Z,18.37
2023-04-30T14:29:24.515Z,17.75
2023-04-30T14:31:54.771Z,18.07
2023-04-30T14:34:25.637Z,18.04
2023-04-30T14:36:59.452Z,17.75
2023-04-30T14:39:30.661Z,17.83
2023-04-30T14:42:01.878Z,17.46
2023-04-30T14:44:35.249Z,17.97
2023-04-30T14:47:05.557Z,17.48
2023-04-30T14:49:35.766Z,17.47
2023-04-30T14:52:05.907Z,17.54
2023-04-30T14:54:36.053Z,17.56
2023-04-30T14:57:07.127Z,16.93
2023-04-30T14:59:40.176Z,17.53
2023-04-30T15:02:11.446Z,18.03
2023-04-30T15:04:45.631Z,17.60
2023-04-30T15:07:15.814Z,18.03
2023-04-30T15:09:46.914Z,17.81
2023-04-30T15:12:17.128Z,17.27
2023-04-30T15:14:47.435Z,17.55
2023-04-30T15:17:18.572Z,18.08
2023-04-30T15:19:51.515Z,17.38
2023-04-30T15:22:56.341Z,15.95
2023-04-30T15:29:54.723Z,17.32
2023-04-30T15:33:06.429Z,18.35
2023-04-30T15:44:36.685Z,22.77
2023-04-30T15:51:29.515Z,24.41
2023-04-30T16:02:25.962Z,24.66
2023-04-30T16:09:24.249Z,25.83
2023-04-30T16:12:02.867Z,27.89
2023-04-30T16:14:33.462Z,26.80
2023-04-30T16:17:03.836Z,27.06
2023-04-30T16:19:34.345Z,27.16
2023-04-30T16:22:17.451Z,28.52
2023-04-30T16:24:47.575Z,27.79
2023-04-30T16:27:17.774Z,28.33
2023-04-30T16:29:49.525Z,28.47
2023-04-30T16:32:19.670Z,28.53
2023-04-30T16:34:49.793Z,29.03
2023-04-30T16:37:19.894Z,29.27
2023-04-30T16:39:50.074Z,29.71
2023-04-30T16:42:20.399Z,29.96
2023-04-30T16:44:50.833Z,30.22
2023-04-30T16:47:20.971Z,30.54
2023-04-30T16:49:51.184Z,30.71
2023-04-30T16:52:21.453Z,30.73
2023-04-30T16:54:51.579Z,31.14
2023-04-30T16:57:22.952Z,31.22
2023-04-30T16:59:53.267Z,31.33
2023-04-30T17:02:24.565Z,31.60
2023-04-30T17:04:54.841Z,31.91
2023-04-30T17:07:25.789Z,32.18
2023-04-30T17:09:56.296Z,32.27
2023-04-30T17:12:28.930Z,32.48
2023-04-30T17:14:59.164Z,32.65
2023-04-30T17:17:29.817Z,32.64
2023-04-30T17:26:06.536Z,33.12
2023-04-30T17:28:37.594Z,33.14
2023-04-30T17:31:09.473Z,33.30
2023-04-30T17:33:41.566Z,33.32
2023-04-30T17:36:12.446Z,33.59
2023-04-30T17:38:42.606Z,33.51
2023-04-30T17:41:12.823Z,33.87
2023-04-30T17:43:43.259Z,33.90
2023-04-30T17:46:14.444Z,33.93
2023-04-30T17:48:44.730Z,34.08
2023-04-30T17:51:15.052Z,34.47
2023-04-30T17:53:45.206Z,34.54
2023-04-30T17:56:16.979Z,34.71
2023-04-30T17:58:47.800Z,34.75
2023-04-30T18:01:18.171Z,34.85
2023-04-30T18:03:48.496Z,34.87
2023-04-30T18:06:18.834Z,35.22
2023-04-30T18:08:49.036Z,35.46
2023-04-30T18:11:19.061Z,35.25
2023-04-30T18:13:49.130Z,35.22
2023-04-30T18:16:19.442Z,35.67
2023-04-30T18:18:49.541Z,35.74
2023-04-30T18:21:19.714Z,35.91
2023-04-30T18:23:49.815Z,36.06
2023-04-30T18:26:21.864Z,36.96
2023-04-30T18:28:52.395Z,36.69
2023-04-30T18:31:22.828Z,36.73
2023-04-30T18:33:52.984Z,37.45
2023-04-30T18:36:24.113Z,37.26
2023-04-30T18:38:54.423Z,37.84
2023-04-30T18:41:26.714Z,38.61
2023-04-30T18:43:57.258Z,37.95
2023-04-30T18:46:27.448Z,37.87
2023-04-30T18:48:58.357Z,38.14
2023-04-30T18:51:28.663Z,38.43
2023-04-30T18:53:59.000Z,38.46
2023-04-30T18:56:29.298Z,38.25
2023-04-30T18:58:59.583Z,38.62
2023-04-30T19:01:29.852Z,38.47
2023-04-30T19:04:00.234Z,38.28
2023-04-30T19:06:32.139Z,38.45
2023-04-30T19:09:02.308Z,38.86
2023-04-30T19:11:35.685Z,39.10
2023-04-30T19:14:06.605Z,38.74
2023-04-30T19:16:36.715Z,39.26
2023-04-30T19:19:07.152Z,38.94
2023-04-30T19:21:37.345Z,38.98
2023-04-30T19:24:07.477Z,39.01
2023-04-30T19:26:38.217Z,39.49
2023-04-30T19:29:09.691Z,39.55
2023-04-30T19:31:40.126Z,39.44
2023-04-30T19:34:14.054Z,39.91
2023-04-30T19:36:44.288Z,39.46
2023-04-30T19:39:15.770Z,40.07
2023-04-30T19:41:46.448Z,40.01
2023-04-30T19:44:17.895Z,40.23
2023-04-30T19:46:48.279Z,40.03
2023-04-30T19:49:18.913Z,40.20
2023-04-30T19:51:48.961Z,40.44
2023-04-30T19:54:19.126Z,40.61
2023-04-30T19:56:52.986Z,40.80
2023-04-30T19:59:23.365Z,40.30
2023-04-30T20:01:53.726Z,40.56
2023-04-30T20:04:26.542Z,40.79
2023-04-30T20:06:58.489Z,40.79
2023-04-30T20:09:28.800Z,40.72
2023-04-30T20:11:59.634Z,40.88
2023-04-30T20:14:30.185Z,40.83
2023-04-30T20:17:00.545Z,40.97
2023-04-30T20:19:31.117Z,41.20
2023-04-30T20:22:03.901Z,41.33
2023-04-30T20:24:34.753Z,41.22
2023-04-30T20:27:07.445Z,41.55
2023-04-30T20:29:40.241Z,41.51
2023-04-30T20:32:10.471Z,41.88
2023-04-30T20:34:40.665Z,41.72
2023-04-30T20:37:10.949Z,41.72
2023-04-30T20:39:43.815Z,42.25
2023-04-30T20:42:14.062Z,42.03
2023-04-30T20:44:44.092Z,42.53
2023-04-30T20:47:17.092Z,42.15
2023-04-30T20:49:47.371Z,42.46
2023-04-30T20:52:17.843Z,42.47
2023-04-30T20:54:48.625Z,42.56
2023-04-30T20:57:18.779Z,42.83
2023-04-30T20:59:48.981Z,42.95
2023-04-30T21:02:19.119Z,43.07
2023-04-30T21:04:49.608Z,43.49
2023-04-30T21:07:19.676Z,43.71
2023-04-30T21:09:51.272Z,43.89
2023-04-30T21:12:22.229Z,43.80
2023-04-30T21:14:52.645Z,43.74
2023-04-30T21:17:22.929Z,44.06
2023-04-30T21:19:53.412Z,44.01
2023-04-30T21:22:24.134Z,44.28
2023-04-30T21:24:55.619Z,44.28
2023-04-30T21:27:25.694Z,44.30
2023-04-30T21:29:56.111Z,44.32
2023-04-30T21:32:27.871Z,44.48
2023-04-30T21:34:57.984Z,44.62
2023-04-30T21:37:28.458Z,44.46
2023-04-30T21:39:58.562Z,44.66
2023-04-30T21:42:29.203Z,44.48
2023-04-30T21:44:59.307Z,44.41
2023-04-30T21:47:29.568Z,44.74
2023-04-30T21:49:59.795Z,44.58
2023-04-30T21:52:30.068Z,45.13
2023-04-30T21:55:00.197Z,44.79
2023-04-30T21:57:30.727Z,45.45
2023-04-30T22:00:00.956Z,45.35
2023-04-30T22:02:33.057Z,45.40
2023-04-30T22:05:04.541Z,45.23
2023-04-30T22:07:34.666Z,45.33
2023-04-30T22:10:06.231Z,45.19
2023-04-30T22:12:36.948Z,45.45
2023-04-30T22:15:08.246Z,45.48
2023-04-30T22:17:38.515Z,45.61
2023-04-30T22:20:10.164Z,45.56
2023-04-30T22:22:40.311Z,45.91
2023-04-30T22:25:10.671Z,45.94
2023-04-30T22:27:40.964Z,45.73
2023-04-30T22:30:11.996Z,46.00
2023-04-30T22:32:42.492Z,45.94
2023-04-30T22:35:16.626Z,46.02
2023-04-30T22:37:46.746Z,45.96
2023-04-30T22:40:16.928Z,45.85
2023-04-30T22:42:47.480Z,46.14
2023-04-30T22:45:17.870Z,46.12
2023-04-30T22:47:48.401Z,46.02
2023-04-30T22:50:18.695Z,46.26
2023-04-30T22:52:49.469Z,46.42
2023-04-30T22:55:19.778Z,46.35
2023-04-30T22:57:50.152Z,46.27
2023-04-30T23:00:20.687Z,46.38
2023-04-30T23:02:50.886Z,46.39
2023-04-30T23:05:21.085Z,46.60
2023-04-30T23:07:51.401Z,46.90
2023-04-30T23:10:21.447Z,46.82
2023-04-30T23:12:55.503Z,46.89
2023-04-30T23:15:26.317Z,47.10
2023-04-30T23:17:57.128Z,46.77
2023-04-30T23:20:27.411Z,46.92
2023-04-30T23:22:57.561Z,46.64
2023-04-30T23:25:27.747Z,46.87
2023-04-30T23:27:59.465Z,46.77
2023-04-30T23:30:29.653Z,46.86
2023-04-30T23:32:59.767Z,46.46
2023-04-30T23:35:29.982Z,47.05
2023-04-30T23:38:00.020Z,46.78
2023-04-30T23:40:30.216Z,46.63
2023-04-30T23:43:00.694Z,46.62
2023-04-30T23:45:31.002Z,46.89
2023-04-30T23:48:01.673Z,47.09
2023-04-30T23:50:31.789Z,46.83
2023-04-30T23:53:01.965Z,47.08
2023-04-30T23:55:32.195Z,47.20
2023-04-30T23:58:02.330Z,47.27
